sensor_id;sensor_type;location;lat;lon;timestamp;P1;durP1;ratioP1;P2;durP2;ratioP2
25988;SDS011;13778;48.236;9.894;2022-09-17T00:01:14;3.42;;;1.73;;
25988;SDS011;13778;48.236;9.894;2022-09-17T00:04:06;2.85;;;1.38;;
25988;SDS011;13778;48.236;9.894;2022-09-17T00:06:56;3.88;;;1.20;;
25988;SDS011;13778;48.236;9.894;2022-09-17T00:09:48;4.57;;;1.38;;
25988;SDS011;13778;48.236;9.894;2022-09-17T00:15:29;3.20;;;1.25;;
25988;SDS011;13778;48.236;9.894;2022-09-17T00:18:19;1.85;;;1.20;;
25988;SDS011;13778;48.236;9.894;2022-09-17T00:21:14;4.10;;;1.38;;
25988;SDS011;13778;48.236;9.894;2022-09-17T00:24:05;1.65;;;1.35;;
25988;SDS011;13778;48.236;9.894;2022-09-17T00:26:57;1.13;;;1.02;;
25988;SDS011;13778;48.236;9.894;2022-09-17T00:29:47;3.50;;;1.25;;
25988;SDS011;13778;48.236;9.894;2022-09-17T00:32:38;10.65;;;1.98;;
25988;SDS011;13778;48.236;9.894;2022-09-17T00:35:28;1.40;;;0.90;;
25988;SDS011;13778;48.236;9.894;2022-09-17T00:38:19;3.88;;;1.05;;
25988;SDS011;13778;48.236;9.894;2022-09-17T00:41:10;4.72;;;1.50;;
25988;SDS011;13778;48.236;9.894;2022-09-17T00:47:08;1.83;;;1.00;;
25988;SDS011;13778;48.236;9.894;2022-09-17T00:50:02;1.35;;;1.25;;
25988;SDS011;13778;48.236;9.894;2022-09-17T00:52:55;2.50;;;0.95;;
25988;SDS011;13778;48.236;9.894;2022-09-17T00:55:47;2.33;;;1.27;;
25988;SDS011;13778;48.236;9.894;2022-09-17T00:58:38;1.08;;;0.98;;
25988;SDS011;13778;48.236;9.894;2022-09-17T01:01:29;1.10;;;1.00;;
25988;SDS011;13778;48.236;9.894;2022-09-17T01:04:21;0.95;;;0.93;;
25988;SDS011;13778;48.236;9.894;2022-09-17T01:07:13;1.50;;;1.27;;
25988;SDS011;13778;48.236;9.894;2022-09-17T01:10:11;0.93;;;0.88;;
25988;SDS011;13778;48.236;9.894;2022-09-17T01:13:06;2.58;;;1.20;;
25988;SDS011;13778;48.236;9.894;2022-09-17T01:15:59;1.63;;;0.93;;
25988;SDS011;13778;48.236;9.894;2022-09-17T01:18:55;1.48;;;1.13;;
25988;SDS011;13778;48.236;9.894;2022-09-17T01:21:53;2.03;;;0.88;;
25988;SDS011;13778;48.236;9.894;2022-09-17T01:24:49;1.42;;;0.90;;
25988;SDS011;13778;48.236;9.894;2022-09-17T01:30:57;1.38;;;1.20;;
25988;SDS011;13778;48.236;9.894;2022-09-17T01:33:50;1.10;;;1.00;;
25988;SDS011;13778;48.236;9.894;2022-09-17T01:36:44;2.45;;;1.10;;
25988;SDS011;13778;48.236;9.894;2022-09-17T01:39:39;4.50;;;1.45;;
25988;SDS011;13778;48.236;9.894;2022-09-17T01:42:34;4.43;;;1.65;;
25988;SDS011;13778;48.236;9.894;2022-09-17T01:45:26;1.55;;;1.45;;
25988;SDS011;13778;48.236;9.894;2022-09-17T01:48:22;1.95;;;1.10;;
25988;SDS011;13778;48.236;9.894;2022-09-17T01:51:14;1.50;;;1.30;;
25988;SDS011;13778;48.236;9.894;2022-09-17T01:54:06;2.25;;;1.20;;
25988;SDS011;13778;48.236;9.894;2022-09-17T01:57:00;1.50;;;1.10;;
25988;SDS011;13778;48.236;9.894;2022-09-17T01:59:53;1.20;;;1.10;;
25988;SDS011;13778;48.236;9.894;2022-09-17T02:02:46;4.30;;;1.45;;
25988;SDS011;13778;48.236;9.894;2022-09-17T02:05:40;3.42;;;1.70;;
25988;SDS011;13778;48.236;9.894;2022-09-17T02:08:34;0.98;;;0.93;;
25988;SDS011;13778;48.236;9.894;2022-09-17T02:11:25;1.83;;;1.00;;
25988;SDS011;13778;48.236;9.894;2022-09-17T02:14:17;1.30;;;1.02;;
25988;SDS011;13778;48.236;9.894;2022-09-17T02:17:10;5.03;;;1.15;;
25988;SDS011;13778;48.236;9.894;2022-09-17T02:20:03;1.67;;;1.30;;
25988;SDS011;13778;48.236;9.894;2022-09-17T02:22:56;1.88;;;1.30;;
25988;SDS011;13778;48.236;9.894;2022-09-17T02:25:48;1.75;;;1.10;;
25988;SDS011;13778;48.236;9.894;2022-09-17T02:28:40;0.95;;;0.82;;
25988;SDS011;13778;48.236;9.894;2022-09-17T02:34:21;1.38;;;1.00;;
25988;SDS011;13778;48.236;9.894;2022-09-17T02:37:13;3.40;;;1.20;;
25988;SDS011;13778;48.236;9.894;2022-09-17T02:40:06;2.88;;;1.52;;
25988;SDS011;13778;48.236;9.894;2022-09-17T02:42:59;3.70;;;1.30;;
25988;SDS011;13778;48.236;9.894;2022-09-17T02:45:55;1.13;;;1.00;;
25988;SDS011;13778;48.236;9.894;2022-09-17T02:49:01;1.70;;;1.08;;
25988;SDS011;13778;48.236;9.894;2022-09-17T02:51:59;1.77;;;1.13;;
25988;SDS011;13778;48.236;9.894;2022-09-17T02:54:55;3.70;;;1.38;;
25988;SDS011;13778;48.236;9.894;2022-09-17T02:57:51;1.35;;;1.00;;
25988;SDS011;13778;48.236;9.894;2022-09-17T03:00:43;0.77;;;0.77;;
25988;SDS011;13778;48.236;9.894;2022-09-17T03:03:35;3.37;;;1.40;;
25988;SDS011;13778;48.236;9.894;2022-09-17T03:06:27;1.55;;;1.00;;
25988;SDS011;13778;48.236;9.894;2022-09-17T03:09:18;2.47;;;0.98;;
25988;SDS011;13778;48.236;9.894;2022-09-17T03:12:09;1.63;;;0.90;;
25988;SDS011;13778;48.236;9.894;2022-09-17T03:15:01;1.33;;;1.00;;
25988;SDS011;13778;48.236;9.894;2022-09-17T03:17:52;6.13;;;1.00;;
25988;SDS011;13778;48.236;9.894;2022-09-17T03:20:42;5.63;;;1.33;;
25988;SDS011;13778;48.236;9.894;2022-09-17T03:23:34;3.50;;;1.10;;
25988;SDS011;13778;48.236;9.894;2022-09-17T03:26:24;1.75;;;1.08;;
25988;SDS011;13778;48.236;9.894;2022-09-17T03:29:15;0.88;;;0.88;;
25988;SDS011;13778;48.236;9.894;2022-09-17T03:32:07;1.02;;;0.90;;
25988;SDS011;13778;48.236;9.894;2022-09-17T03:37:47;1.85;;;0.98;;
25988;SDS011;13778;48.236;9.894;2022-09-17T03:40:38;1.77;;;1.20;;
25988;SDS011;13778;48.236;9.894;2022-09-17T03:43:28;1.20;;;1.10;;
25988;SDS011;13778;48.236;9.894;2022-09-17T03:46:19;3.72;;;1.52;;
25988;SDS011;13778;48.236;9.894;2022-09-17T03:49:11;5.55;;;1.73;;
25988;SDS011;13778;48.236;9.894;2022-09-17T03:52:01;4.75;;;1.67;;
25988;SDS011;13778;48.236;9.894;2022-09-17T03:54:52;3.60;;;1.67;;
25988;SDS011;13778;48.236;9.894;2022-09-17T03:57:43;7.85;;;1.77;;
25988;SDS011;13778;48.236;9.894;2022-09-17T04:00:33;1.67;;;1.58;;
25988;SDS011;13778;48.236;9.894;2022-09-17T04:03:25;3.72;;;2.15;;
25988;SDS011;13778;48.236;9.894;2022-09-17T04:06:17;2.03;;;1.83;;
25988;SDS011;13778;48.236;9.894;2022-09-17T04:09:07;2.28;;;1.98;;
25988;SDS011;13778;48.236;9.894;2022-09-17T04:11:58;6.57;;;2.67;;
25988;SDS011;13778;48.236;9.894;2022-09-17T04:14:48;3.88;;;2.17;;
25988;SDS011;13778;48.236;9.894;2022-09-17T04:17:39;5.03;;;1.90;;
25988;SDS011;13778;48.236;9.894;2022-09-17T04:20:29;5.30;;;2.13;;
25988;SDS011;13778;48.236;9.894;2022-09-17T04:23:21;3.25;;;2.03;;
25988;SDS011;13778;48.236;9.894;2022-09-17T04:29:02;2.50;;;2.00;;
25988;SDS011;13778;48.236;9.894;2022-09-17T04:31:53;2.10;;;1.70;;
25988;SDS011;13778;48.236;9.894;2022-09-17T04:34:43;2.08;;;1.88;;
25988;SDS011;13778;48.236;9.894;2022-09-17T04:37:34;3.78;;;1.92;;
25988;SDS011;13778;48.236;9.894;2022-09-17T04:40:26;6.05;;;2.22;;
25988;SDS011;13778;48.236;9.894;2022-09-17T04:43:17;2.92;;;1.88;;
25988;SDS011;13778;48.236;9.894;2022-09-17T04:46:07;3.22;;;1.98;;
25988;SDS011;13778;48.236;9.894;2022-09-17T04:48:58;2.75;;;2.08;;
25988;SDS011;13778;48.236;9.894;2022-09-17T04:51:48;5.53;;;1.85;;
25988;SDS011;13778;48.236;9.894;2022-09-17T04:54:39;2.55;;;1.63;;
25988;SDS011;13778;48.236;9.894;2022-09-17T04:57:30;2.08;;;1.58;;
25988;SDS011;13778;48.236;9.894;2022-09-17T05:03:11;5.80;;;2.50;;
25988;SDS011;13778;48.236;9.894;2022-09-17T05:06:02;2.00;;;1.60;;
25988;SDS011;13778;48.236;9.894;2022-09-17T05:08:52;3.20;;;1.58;;
25988;SDS011;13778;48.236;9.894;2022-09-17T05:11:42;5.97;;;1.35;;
25988;SDS011;13778;48.236;9.894;2022-09-17T05:14:34;4.28;;;1.80;;
25988;SDS011;13778;48.236;9.894;2022-09-17T05:17:25;4.35;;;1.95;;
25988;SDS011;13778;48.236;9.894;2022-09-17T05:20:15;3.15;;;2.05;;
25988;SDS011;13778;48.236;9.894;2022-09-17T05:23:06;3.37;;;2.27;;
25988;SDS011;13778;48.236;9.894;2022-09-17T05:25:57;5.70;;;2.55;;
25988;SDS011;13778;48.236;9.894;2022-09-17T05:28:47;4.35;;;2.55;;
25988;SDS011;13778;48.236;9.894;2022-09-17T05:31:39;3.15;;;2.00;;
25988;SDS011;13778;48.236;9.894;2022-09-17T05:34:30;5.60;;;1.50;;
25988;SDS011;13778;48.236;9.894;2022-09-17T05:37:20;1.83;;;1.27;;
25988;SDS011;13778;48.236;9.894;2022-09-17T05:40:10;4.07;;;1.13;;
25988;SDS011;13778;48.236;9.894;2022-09-17T05:43:02;1.63;;;1.00;;
25988;SDS011;13778;48.236;9.894;2022-09-17T05:45:52;5.00;;;1.30;;
25988;SDS011;13778;48.236;9.894;2022-09-17T05:48:44;4.70;;;1.35;;
25988;SDS011;13778;48.236;9.894;2022-09-17T05:51:35;1.83;;;1.10;;
25988;SDS011;13778;48.236;9.894;2022-09-17T05:54:26;1.57;;;1.37;;
25988;SDS011;13778;48.236;9.894;2022-09-17T05:57:16;4.32;;;1.60;;
25988;SDS011;13778;48.236;9.894;2022-09-17T06:00:08;2.45;;;1.05;;
25988;SDS011;13778;48.236;9.894;2022-09-17T06:03:00;3.92;;;1.45;;
25988;SDS011;13778;48.236;9.894;2022-09-17T06:05:53;4.60;;;1.55;;
25988;SDS011;13778;48.236;9.894;2022-09-17T06:08:44;3.53;;;1.42;;
25988;SDS011;13778;48.236;9.894;2022-09-17T06:11:35;3.00;;;1.20;;
25988;SDS011;13778;48.236;9.894;2022-09-17T06:14:25;2.43;;;1.10;;
25988;SDS011;13778;48.236;9.894;2022-09-17T06:17:16;5.50;;;1.33;;
25988;SDS011;13778;48.236;9.894;2022-09-17T06:20:07;4.28;;;1.40;;
25988;SDS011;13778;48.236;9.894;2022-09-17T06:22:59;4.65;;;1.88;;
25988;SDS011;13778;48.236;9.894;2022-09-17T06:25:50;2.60;;;1.20;;
25988;SDS011;13778;48.236;9.894;2022-09-17T06:28:41;3.22;;;1.10;;
25988;SDS011;13778;48.236;9.894;2022-09-17T06:31:31;2.80;;;1.27;;
25988;SDS011;13778;48.236;9.894;2022-09-17T06:34:22;1.58;;;1.05;;
25988;SDS011;13778;48.236;9.894;2022-09-17T06:37:12;1.48;;;1.25;;
25988;SDS011;13778;48.236;9.894;2022-09-17T06:40:05;3.60;;;1.55;;
25988;SDS011;13778;48.236;9.894;2022-09-17T06:42:55;2.33;;;1.20;;
25988;SDS011;13778;48.236;9.894;2022-09-17T06:45:50;2.63;;;1.30;;
25988;SDS011;13778;48.236;9.894;2022-09-17T06:48:41;4.30;;;1.38;;
25988;SDS011;13778;48.236;9.894;2022-09-17T06:51:31;3.17;;;1.13;;
25988;SDS011;13778;48.236;9.894;2022-09-17T06:54:22;4.20;;;1.50;;
25988;SDS011;13778;48.236;9.894;2022-09-17T06:57:14;6.68;;;1.83;;
25988;SDS011;13778;48.236;9.894;2022-09-17T07:00:04;2.30;;;1.83;;
25988;SDS011;13778;48.236;9.894;2022-09-17T07:02:55;5.45;;;1.73;;
25988;SDS011;13778;48.236;9.894;2022-09-17T07:05:46;2.72;;;1.35;;
25988;SDS011;13778;48.236;9.894;2022-09-17T07:08:36;7.38;;;1.30;;
25988;SDS011;13778;48.236;9.894;2022-09-17T07:11:28;3.28;;;1.90;;
25988;SDS011;13778;48.236;9.894;2022-09-17T07:14:19;5.13;;;1.67;;
25988;SDS011;13778;48.236;9.894;2022-09-17T07:17:12;6.28;;;1.95;;
25988;SDS011;13778;48.236;9.894;2022-09-17T07:20:03;3.95;;;1.50;;
25988;SDS011;13778;48.236;9.894;2022-09-17T07:22:54;4.13;;;1.30;;
25988;SDS011;13778;48.236;9.894;2022-09-17T07:25:49;5.73;;;1.40;;
25988;SDS011;13778;48.236;9.894;2022-09-17T07:28:40;3.78;;;1.63;;
25988;SDS011;13778;48.236;9.894;2022-09-17T07:31:33;9.55;;;2.03;;
25988;SDS011;13778;48.236;9.894;2022-09-17T07:34:24;6.07;;;1.30;;
25988;SDS011;13778;48.236;9.894;2022-09-17T07:37:16;8.20;;;1.50;;
25988;SDS011;13778;48.236;9.894;2022-09-17T07:40:07;6.47;;;1.75;;
25988;SDS011;13778;48.236;9.894;2022-09-17T07:42:58;2.67;;;1.27;;
25988;SDS011;13778;48.236;9.894;2022-09-17T07:45:48;12.43;;;2.17;;
25988;SDS011;13778;48.236;9.894;2022-09-17T07:48:40;6.90;;;2.30;;
25988;SDS011;13778;48.236;9.894;2022-09-17T07:51:30;4.35;;;1.55;;
25988;SDS011;13778;48.236;9.894;2022-09-17T07:54:21;6.45;;;1.80;;
25988;SDS011;13778;48.236;9.894;2022-09-17T07:57:11;9.20;;;2.10;;
25988;SDS011;13778;48.236;9.894;2022-09-17T08:00:02;6.72;;;1.50;;
25988;SDS011;13778;48.236;9.894;2022-09-17T08:02:53;5.93;;;1.50;;
25988;SDS011;13778;48.236;9.894;2022-09-17T08:05:44;7.05;;;1.30;;
25988;SDS011;13778;48.236;9.894;2022-09-17T08:08:36;7.68;;;1.73;;
25988;SDS011;13778;48.236;9.894;2022-09-17T08:11:28;8.07;;;1.87;;
25988;SDS011;13778;48.236;9.894;2022-09-17T08:14:18;4.55;;;1.60;;
25988;SDS011;13778;48.236;9.894;2022-09-17T08:17:09;10.30;;;1.42;;
25988;SDS011;13778;48.236;9.894;2022-09-17T08:19:59;8.57;;;1.73;;
25988;SDS011;13778;48.236;9.894;2022-09-17T08:22:57;7.60;;;1.90;;
25988;SDS011;13778;48.236;9.894;2022-09-17T08:25:50;5.13;;;1.73;;
25988;SDS011;13778;48.236;9.894;2022-09-17T08:28:43;7.57;;;1.38;;
25988;SDS011;13778;48.236;9.894;2022-09-17T08:31:33;10.52;;;1.70;;
25988;SDS011;13778;48.236;9.894;2022-09-17T08:34:24;9.40;;;1.58;;
25988;SDS011;13778;48.236;9.894;2022-09-17T08:37:14;6.30;;;1.35;;
25988;SDS011;13778;48.236;9.894;2022-09-17T08:40:08;5.25;;;1.40;;
25988;SDS011;13778;48.236;9.894;2022-09-17T08:42:59;5.00;;;1.40;;
25988;SDS011;13778;48.236;9.894;2022-09-17T08:45:51;5.90;;;1.75;;
25988;SDS011;13778;48.236;9.894;2022-09-17T08:48:44;5.75;;;1.40;;
25988;SDS011;13778;48.236;9.894;2022-09-17T08:51:36;4.82;;;1.33;;
25988;SDS011;13778;48.236;9.894;2022-09-17T08:54:30;3.60;;;1.20;;
25988;SDS011;13778;48.236;9.894;2022-09-17T08:57:26;6.40;;;1.55;;
25988;SDS011;13778;48.236;9.894;2022-09-17T09:00:20;3.85;;;1.67;;
25988;SDS011;13778;48.236;9.894;2022-09-17T09:03:15;6.73;;;1.30;;
25988;SDS011;13778;48.236;9.894;2022-09-17T09:06:10;8.43;;;2.90;;
25988;SDS011;13778;48.236;9.894;2022-09-17T09:09:03;2.20;;;1.40;;
25988;SDS011;13778;48.236;9.894;2022-09-17T09:11:56;6.15;;;1.55;;
25988;SDS011;13778;48.236;9.894;2022-09-17T09:14:49;6.60;;;1.23;;
25988;SDS011;13778;48.236;9.894;2022-09-17T09:17:41;5.70;;;1.88;;
25988;SDS011;13778;48.236;9.894;2022-09-17T09:20:35;5.60;;;1.42;;
25988;SDS011;13778;48.236;9.894;2022-09-17T09:23:31;2.47;;;1.40;;
25988;SDS011;13778;48.236;9.894;2022-09-17T09:26:28;6.15;;;1.70;;
25988;SDS011;13778;48.236;9.894;2022-09-17T09:29:25;4.82;;;1.42;;
25988;SDS011;13778;48.236;9.894;2022-09-17T09:32:26;7.15;;;1.95;;
25988;SDS011;13778;48.236;9.894;2022-09-17T09:35:22;5.30;;;1.98;;
25988;SDS011;13778;48.236;9.894;2022-09-17T09:38:17;3.03;;;1.40;;
25988;SDS011;13778;48.236;9.894;2022-09-17T09:41:10;2.10;;;0.77;;
25988;SDS011;13778;48.236;9.894;2022-09-17T09:44:01;1.20;;;0.77;;
25988;SDS011;13778;48.236;9.894;2022-09-17T09:46:56;1.63;;;0.50;;
25988;SDS011;13778;48.236;9.894;2022-09-17T09:49:56;4.22;;;0.65;;
25988;SDS011;13778;48.236;9.894;2022-09-17T09:52:50;0.80;;;0.60;;
25988;SDS011;13778;48.236;9.894;2022-09-17T09:55:44;1.95;;;0.70;;
25988;SDS011;13778;48.236;9.894;2022-09-17T09:58:38;0.93;;;0.68;;
25988;SDS011;13778;48.236;9.894;2022-09-17T10:01:28;2.67;;;1.25;;
25988;SDS011;13778;48.236;9.894;2022-09-17T10:04:21;1.13;;;0.55;;
25988;SDS011;13778;48.236;9.894;2022-09-17T10:07:13;2.28;;;0.80;;
25988;SDS011;13778;48.236;9.894;2022-09-17T10:10:06;1.52;;;0.75;;
25988;SDS011;13778;48.236;9.894;2022-09-17T10:13:04;2.97;;;0.95;;
25988;SDS011;13778;48.236;9.894;2022-09-17T10:15:54;2.65;;;1.02;;
25988;SDS011;13778;48.236;9.894;2022-09-17T10:18:46;9.03;;;1.40;;
25988;SDS011;13778;48.236;9.894;2022-09-17T10:21:37;3.95;;;1.08;;
25988;SDS011;13778;48.236;9.894;2022-09-17T10:24:29;3.85;;;0.90;;
25988;SDS011;13778;48.236;9.894;2022-09-17T10:27:22;2.70;;;1.35;;
25988;SDS011;13778;48.236;9.894;2022-09-17T10:30:14;3.10;;;1.50;;
25988;SDS011;13778;48.236;9.894;2022-09-17T10:33:15;1.73;;;1.10;;
25988;SDS011;13778;48.236;9.894;2022-09-17T10:36:08;2.67;;;1.42;;
25988;SDS011;13778;48.236;9.894;2022-09-17T10:39:05;3.65;;;1.42;;
25988;SDS011;13778;48.236;9.894;2022-09-17T10:42:12;3.03;;;1.10;;
25988;SDS011;13778;48.236;9.894;2022-09-17T10:45:02;2.97;;;1.20;;
25988;SDS011;13778;48.236;9.894;2022-09-17T10:47:53;3.70;;;1.40;;
25988;SDS011;13778;48.236;9.894;2022-09-17T10:50:46;5.47;;;1.20;;
25988;SDS011;13778;48.236;9.894;2022-09-17T10:53:50;1.73;;;1.13;;
25988;SDS011;13778;48.236;9.894;2022-09-17T10:56:45;6.63;;;2.08;;
25988;SDS011;13778;48.236;9.894;2022-09-17T10:59:51;6.53;;;1.20;;
25988;SDS011;13778;48.236;9.894;2022-09-17T11:02:59;7.15;;;1.40;;
25988;SDS011;13778;48.236;9.894;2022-09-17T11:06:03;4.18;;;1.65;;
25988;SDS011;13778;48.236;9.894;2022-09-17T11:08:59;3.37;;;1.20;;
25988;SDS011;13778;48.236;9.894;2022-09-17T11:11:54;5.28;;;1.88;;
25988;SDS011;13778;48.236;9.894;2022-09-17T11:14:50;4.03;;;1.70;;
25988;SDS011;13778;48.236;9.894;2022-09-17T11:17:56;4.28;;;1.90;;
25988;SDS011;13778;48.236;9.894;2022-09-17T11:20:55;5.93;;;1.92;;
25988;SDS011;13778;48.236;9.894;2022-09-17T11:23:54;7.93;;;2.05;;
25988;SDS011;13778;48.236;9.894;2022-09-17T11:26:51;3.28;;;1.40;;
25988;SDS011;13778;48.236;9.894;2022-09-17T11:29:47;4.70;;;1.58;;
25988;SDS011;13778;48.236;9.894;2022-09-17T11:35:52;7.35;;;1.88;;
25988;SDS011;13778;48.236;9.894;2022-09-17T11:38:48;8.07;;;2.05;;
25988;SDS011;13778;48.236;9.894;2022-09-17T11:41:40;5.50;;;1.70;;
25988;SDS011;13778;48.236;9.894;2022-09-17T11:47:21;4.90;;;1.77;;
25988;SDS011;13778;48.236;9.894;2022-09-17T11:50:15;8.00;;;1.75;;
25988;SDS011;13778;48.236;9.894;2022-09-17T11:53:13;7.53;;;1.75;;
25988;SDS011;13778;48.236;9.894;2022-09-17T11:56:04;6.05;;;1.50;;
25988;SDS011;13778;48.236;9.894;2022-09-17T11:58:58;5.95;;;1.40;;
25988;SDS011;13778;48.236;9.894;2022-09-17T12:01:51;7.30;;;2.42;;
25988;SDS011;13778;48.236;9.894;2022-09-17T12:04:43;8.52;;;1.80;;
25988;SDS011;13778;48.236;9.894;2022-09-17T12:07:35;3.25;;;1.30;;
25988;SDS011;13778;48.236;9.894;2022-09-17T12:10:38;4.07;;;1.40;;
25988;SDS011;13778;48.236;9.894;2022-09-17T12:13:31;2.63;;;1.42;;
25988;SDS011;13778;48.236;9.894;2022-09-17T12:16:23;3.45;;;1.50;;
25988;SDS011;13778;48.236;9.894;2022-09-17T12:19:16;4.82;;;1.77;;
25988;SDS011;13778;48.236;9.894;2022-09-17T12:22:09;8.93;;;2.30;;
25988;SDS011;13778;48.236;9.894;2022-09-17T12:25:01;5.18;;;1.80;;
25988;SDS011;13778;48.236;9.894;2022-09-17T12:27:53;8.88;;;1.75;;
25988;SDS011;13778;48.236;9.894;2022-09-17T12:30:48;4.03;;;1.63;;
25988;SDS011;13778;48.236;9.894;2022-09-17T12:33:42;4.97;;;1.42;;
25988;SDS011;13778;48.236;9.894;2022-09-17T12:36:37;5.50;;;1.80;;
25988;SDS011;13778;48.236;9.894;2022-09-17T12:42:54;6.07;;;1.83;;
25988;SDS011;13778;48.236;9.894;2022-09-17T12:45:56;4.35;;;2.05;;
25988;SDS011;13778;48.236;9.894;2022-09-17T12:48:58;3.65;;;1.30;;
25988;SDS011;13778;48.236;9.894;2022-09-17T12:51:53;4.63;;;1.70;;
25988;SDS011;13778;48.236;9.894;2022-09-17T12:57:36;1.67;;;0.93;;
25988;SDS011;13778;48.236;9.894;2022-09-17T13:00:29;5.25;;;1.20;;
25988;SDS011;13778;48.236;9.894;2022-09-17T13:03:22;3.05;;;1.00;;
25988;SDS011;13778;48.236;9.894;2022-09-17T13:06:37;4.88;;;0.98;;
25988;SDS011;13778;48.236;9.894;2022-09-17T13:09:43;5.13;;;1.63;;
25988;SDS011;13778;48.236;9.894;2022-09-17T13:12:37;3.30;;;1.20;;
25988;SDS011;13778;48.236;9.894;2022-09-17T13:15:36;5.82;;;1.55;;
25988;SDS011;13778;48.236;9.894;2022-09-17T13:18:30;5.50;;;1.80;;
25988;SDS011;13778;48.236;9.894;2022-09-17T13:21:24;6.18;;;1.45;;
25988;SDS011;13778;48.236;9.894;2022-09-17T13:24:19;4.65;;;1.75;;
25988;SDS011;13778;48.236;9.894;2022-09-17T13:27:22;5.30;;;1.60;;
25988;SDS011;13778;48.236;9.894;2022-09-17T13:30:13;4.18;;;1.33;;
25988;SDS011;13778;48.236;9.894;2022-09-17T13:33:05;4.57;;;1.30;;
25988;SDS011;13778;48.236;9.894;2022-09-17T13:35:58;2.67;;;0.90;;
25988;SDS011;13778;48.236;9.894;2022-09-17T13:38:49;2.40;;;1.02;;
25988;SDS011;13778;48.236;9.894;2022-09-17T13:41:40;3.55;;;1.20;;
25988;SDS011;13778;48.236;9.894;2022-09-17T13:44:32;4.63;;;1.05;;
25988;SDS011;13778;48.236;9.894;2022-09-17T13:47:25;5.55;;;1.20;;
25988;SDS011;13778;48.236;9.894;2022-09-17T13:50:25;2.60;;;1.30;;
25988;SDS011;13778;48.236;9.894;2022-09-17T13:53:16;5.60;;;1.38;;
25988;SDS011;13778;48.236;9.894;2022-09-17T13:59:16;4.85;;;1.10;;
25988;SDS011;13778;48.236;9.894;2022-09-17T14:08:29;6.75;;;2.88;;
25988;SDS011;13778;48.236;9.894;2022-09-17T14:14:45;3.40;;;1.92;;
25988;SDS011;13778;48.236;9.894;2022-09-17T14:17:47;5.35;;;2.22;;
25988;SDS011;13778;48.236;9.894;2022-09-17T14:20:40;6.38;;;2.17;;
25988;SDS011;13778;48.236;9.894;2022-09-17T14:23:31;3.55;;;1.00;;
25988;SDS011;13778;48.236;9.894;2022-09-17T14:26:35;4.95;;;1.10;;
25988;SDS011;13778;48.236;9.894;2022-09-17T14:29:32;6.25;;;3.42;;
25988;SDS011;13778;48.236;9.894;2022-09-17T14:32:26;7.97;;;3.78;;
25988;SDS011;13778;48.236;9.894;2022-09-17T14:35:22;7.00;;;1.98;;
25988;SDS011;13778;48.236;9.894;2022-09-17T14:38:16;3.28;;;1.27;;
25988;SDS011;13778;48.236;9.894;2022-09-17T14:41:17;1.85;;;0.80;;
25988;SDS011;13778;48.236;9.894;2022-09-17T14:44:11;0.70;;;0.50;;
25988;SDS011;13778;48.236;9.894;2022-09-17T14:47:05;5.18;;;1.63;;
25988;SDS011;13778;48.236;9.894;2022-09-17T14:50:08;2.17;;;1.60;;
25988;SDS011;13778;48.236;9.894;2022-09-17T14:53:07;4.00;;;2.22;;
25988;SDS011;13778;48.236;9.894;2022-09-17T14:56:01;2.25;;;2.05;;
25988;SDS011;13778;48.236;9.894;2022-09-17T14:58:53;5.10;;;2.35;;
25988;SDS011;13778;48.236;9.894;2022-09-17T15:01:45;6.60;;;3.00;;
25988;SDS011;13778;48.236;9.894;2022-09-17T15:07:27;4.45;;;2.53;;
25988;SDS011;13778;48.236;9.894;2022-09-17T15:10:18;2.85;;;1.98;;
25988;SDS011;13778;48.236;9.894;2022-09-17T15:13:10;2.30;;;1.33;;
25988;SDS011;13778;48.236;9.894;2022-09-17T15:16:03;2.83;;;1.83;;
25988;SDS011;13778;48.236;9.894;2022-09-17T15:18:56;3.38;;;2.20;;
25988;SDS011;13778;48.236;9.894;2022-09-17T15:24:38;3.53;;;1.33;;
25988;SDS011;13778;48.236;9.894;2022-09-17T15:27:31;4.18;;;1.48;;
25988;SDS011;13778;48.236;9.894;2022-09-17T15:33:14;4.57;;;1.67;;
25988;SDS011;13778;48.236;9.894;2022-09-17T15:36:08;6.55;;;1.40;;
25988;SDS011;13778;48.236;9.894;2022-09-17T15:42:16;3.67;;;1.80;;
25988;SDS011;13778;48.236;9.894;2022-09-17T15:45:07;5.45;;;2.15;;
25988;SDS011;13778;48.236;9.894;2022-09-17T15:47:58;2.72;;;1.83;;
25988;SDS011;13778;48.236;9.894;2022-09-17T15:50:50;2.70;;;1.58;;
25988;SDS011;13778;48.236;9.894;2022-09-17T15:53:49;1.40;;;1.08;;
25988;SDS011;13778;48.236;9.894;2022-09-17T15:56:40;3.20;;;1.05;;
25988;SDS011;13778;48.236;9.894;2022-09-17T15:59:30;3.22;;;1.08;;
25988;SDS011;13778;48.236;9.894;2022-09-17T16:02:25;1.00;;;0.90;;
25988;SDS011;13778;48.236;9.894;2022-09-17T16:08:38;1.45;;;0.80;;
25988;SDS011;13778;48.236;9.894;2022-09-17T16:11:29;2.85;;;1.58;;
25988;SDS011;13778;48.236;9.894;2022-09-17T16:14:19;3.63;;;1.65;;
25988;SDS011;13778;48.236;9.894;2022-09-17T16:17:23;1.42;;;1.17;;
25988;SDS011;13778;48.236;9.894;2022-09-17T16:20:15;5.43;;;2.30;;
25988;SDS011;13778;48.236;9.894;2022-09-17T16:23:06;3.25;;;1.52;;
25988;SDS011;13778;48.236;9.894;2022-09-17T16:25:57;6.65;;;2.38;;
25988;SDS011;13778;48.236;9.894;2022-09-17T16:28:48;5.03;;;1.63;;
25988;SDS011;13778;48.236;9.894;2022-09-17T16:31:41;2.53;;;1.73;;
25988;SDS011;13778;48.236;9.894;2022-09-17T16:34:32;1.38;;;1.15;;
25988;SDS011;13778;48.236;9.894;2022-09-17T16:37:23;12.05;;;5.63;;
25988;SDS011;13778;48.236;9.894;2022-09-17T16:40:13;3.10;;;1.58;;
25988;SDS011;13778;48.236;9.894;2022-09-17T16:43:05;3.38;;;1.70;;
25988;SDS011;13778;48.236;9.894;2022-09-17T16:45:57;7.65;;;3.85;;
25988;SDS011;13778;48.236;9.894;2022-09-17T16:48:48;9.25;;;3.20;;
25988;SDS011;13778;48.236;9.894;2022-09-17T16:51:38;11.10;;;5.57;;
25988;SDS011;13778;48.236;9.894;2022-09-17T16:54:29;6.70;;;4.32;;
25988;SDS011;13778;48.236;9.894;2022-09-17T16:57:19;6.38;;;4.50;;
25988;SDS011;13778;48.236;9.894;2022-09-17T17:00:12;5.28;;;2.92;;
25988;SDS011;13778;48.236;9.894;2022-09-17T17:03:04;3.10;;;1.90;;
25988;SDS011;13778;48.236;9.894;2022-09-17T17:05:55;1.75;;;1.35;;
25988;SDS011;13778;48.236;9.894;2022-09-17T17:08:45;4.03;;;2.00;;
25988;SDS011;13778;48.236;9.894;2022-09-17T17:11:36;4.70;;;2.47;;
25988;SDS011;13778;48.236;9.894;2022-09-17T17:14:26;3.50;;;2.80;;
25988;SDS011;13778;48.236;9.894;2022-09-17T17:17:18;7.10;;;2.80;;
25988;SDS011;13778;48.236;9.894;2022-09-17T17:20:09;4.82;;;3.13;;
25988;SDS011;13778;48.236;9.894;2022-09-17T17:23:01;3.55;;;2.70;;
25988;SDS011;13778;48.236;9.894;2022-09-17T17:25:52;4.47;;;2.13;;
25988;SDS011;13778;48.236;9.894;2022-09-17T17:28:42;3.78;;;2.60;;
25988;SDS011;13778;48.236;9.894;2022-09-17T17:31:32;3.25;;;2.50;;
25988;SDS011;13778;48.236;9.894;2022-09-17T17:34:24;4.82;;;2.85;;
25988;SDS011;13778;48.236;9.894;2022-09-17T17:37:14;4.35;;;2.70;;
25988;SDS011;13778;48.236;9.894;2022-09-17T17:40:05;5.75;;;2.90;;
25988;SDS011;13778;48.236;9.894;2022-09-17T17:42:56;4.13;;;2.08;;
25988;SDS011;13778;48.236;9.894;2022-09-17T17:45:47;8.48;;;2.97;;
25988;SDS011;13778;48.236;9.894;2022-09-17T17:48:37;6.03;;;2.20;;
25988;SDS011;13778;48.236;9.894;2022-09-17T17:51:29;8.73;;;1.70;;
25988;SDS011;13778;48.236;9.894;2022-09-17T17:54:19;3.85;;;1.85;;
25988;SDS011;13778;48.236;9.894;2022-09-17T17:57:10;2.42;;;1.60;;
25988;SDS011;13778;48.236;9.894;2022-09-17T18:00:00;3.22;;;1.70;;
25988;SDS011;13778;48.236;9.894;2022-09-17T18:02:51;5.85;;;1.90;;
25988;SDS011;13778;48.236;9.894;2022-09-17T18:05:41;4.50;;;1.55;;
25988;SDS011;13778;48.236;9.894;2022-09-17T18:08:35;3.42;;;1.58;;
25988;SDS011;13778;48.236;9.894;2022-09-17T18:11:26;3.05;;;1.60;;
25988;SDS011;13778;48.236;9.894;2022-09-17T18:14:16;4.75;;;1.70;;
25988;SDS011;13778;48.236;9.894;2022-09-17T18:17:07;5.78;;;2.10;;
25988;SDS011;13778;48.236;9.894;2022-09-17T18:19:57;3.10;;;2.05;;
25988;SDS011;13778;48.236;9.894;2022-09-17T18:22:48;3.33;;;2.20;;